createdAt,value
2019-04-04T00:00:29.396Z,10.40
2019-04-04T00:02:58.398Z,10.20
2019-04-04T00:05:34.070Z,10.10
2019-04-04T00:08:03.029Z,10.10
2019-04-04T00:10:32.909Z,10.00
2019-04-04T00:13:11.180Z,10.00
2019-04-04T00:15:40.645Z,9.90
2019-04-04T00:18:09.706Z,9.90
2019-04-04T00:20:45.237Z,9.80
2019-04-04T00:23:14.186Z,9.80
2019-04-04T00:25:56.338Z,9.70
2019-04-04T00:28:32.085Z,9.60
2019-04-04T00:31:14.896Z,9.50
2019-04-04T00:33:44.037Z,9.50
2019-04-04T00:36:13.318Z,9.30
2019-04-04T00:38:49.126Z,9.20
2019-04-04T00:41:24.108Z,9.20
2019-04-04T00:44:00.892Z,9.10
2019-04-04T00:46:30.993Z,9.00
2019-04-04T00:49:00.532Z,9.00
2019-04-04T00:51:38.808Z,9.00
2019-04-04T00:54:07.067Z,8.80
2019-04-04T00:56:36.027Z,8.80
2019-04-04T00:59:12.172Z,8.80
2019-04-04T01:01:41.173Z,8.70
2019-04-04T01:04:10.272Z,8.70
2019-04-04T01:06:46.318Z,8.60
2019-04-04T01:09:15.312Z,8.50
2019-04-04T01:11:44.374Z,8.70
2019-04-04T01:14:20.624Z,8.80
2019-04-04T01:16:49.577Z,8.80
2019-04-04T01:19:18.547Z,8.90
2019-04-04T01:21:55.012Z,8.80
2019-04-04T01:24:23.973Z,8.70
2019-04-04T01:26:59.318Z,8.60
2019-04-04T01:29:42.113Z,8.40
2019-04-04T01:32:17.634Z,8.10
2019-04-04T01:34:53.898Z,7.80
2019-04-04T01:37:22.963Z,7.60
2019-04-04T01:39:51.954Z,7.50
2019-04-04T01:42:27.615Z,7.50
2019-04-04T01:44:56.659Z,7.30
2019-04-04T01:47:25.662Z,7.30
2019-04-04T01:50:01.316Z,7.20
2019-04-04T01:52:30.346Z,7.20
2019-04-04T01:55:02.920Z,7.20
2019-04-04T01:57:38.922Z,7.20
2019-04-04T02:00:10.051Z,7.20
2019-04-04T02:02:39.030Z,7.00
2019-04-04T02:05:16.195Z,6.90
2019-04-04T02:07:45.159Z,6.90
2019-04-04T02:10:14.818Z,6.80
2019-04-04T02:12:51.027Z,6.80
2019-04-04T02:15:20.029Z,6.70
2019-04-04T02:17:49.073Z,6.80
2019-04-04T02:20:24.989Z,6.70
2019-04-04T02:22:55.144Z,6.70
2019-04-04T02:25:24.114Z,6.60
2019-04-04T02:28:00.304Z,6.60
2019-04-04T02:30:35.845Z,6.60
2019-04-04T02:33:11.879Z,6.50
2019-04-04T02:35:47.508Z,6.50
2019-04-04T02:38:27.188Z,6.50
2019-04-04T02:40:54.038Z,6.50
2019-04-04T02:43:27.392Z,6.40
2019-04-04T02:46:00.898Z,6.40
2019-04-04T02:48:29.939Z,6.40
2019-04-04T02:50:58.893Z,6.40
2019-04-04T02:53:34.466Z,6.40
2019-04-04T02:56:03.734Z,6.30
2019-04-04T02:58:32.906Z,6.20
2019-04-04T03:01:09.326Z,6.20
2019-04-04T03:03:41.069Z,6.20
2019-04-04T03:06:09.019Z,6.20
2019-04-04T03:08:45.306Z,6.20
2019-04-04T03:11:14.290Z,6.30
2019-04-04T03:13:43.385Z,6.20
2019-04-04T03:16:21.521Z,6.20
2019-04-04T03:18:50.083Z,6.20
2019-04-04T03:21:22.188Z,6.20
2019-04-04T03:23:56.964Z,6.20
2019-04-04T03:26:25.918Z,6.20
2019-04-04T03:29:10.637Z,6.10
2019-04-04T03:31:46.638Z,6.10
2019-04-04T03:34:22.284Z,6.00
2019-04-04T03:36:57.653Z,6.00
2019-04-04T03:39:33.620Z,6.00
2019-04-04T03:42:07.110Z,6.00
2019-04-04T03:44:33.284Z,5.90
2019-04-04T03:47:10.437Z,5.90
2019-04-04T03:49:39.774Z,5.90
2019-04-04T03:52:11.190Z,5.80
2019-04-04T03:54:46.649Z,5.90
2019-04-04T03:57:15.728Z,5.80
2019-04-04T03:59:44.729Z,5.90
2019-04-04T04:02:20.699Z,5.80
2019-04-04T04:07:52.984Z,5.80
2019-04-04T04:10:22.035Z,5.90
2019-04-04T04:12:50.987Z,5.90
2019-04-04T04:15:29.585Z,6.00
2019-04-04T04:17:57.707Z,5.90
2019-04-04T04:20:26.792Z,5.80
2019-04-04T04:23:02.799Z,5.80
2019-04-04T04:25:35.229Z,5.80
2019-04-04T04:28:03.117Z,5.90
2019-04-04T04:30:40.556Z,5.90
2019-04-04T04:33:09.568Z,6.00
2019-04-04T04:35:42.080Z,6.10
2019-04-04T04:38:25.882Z,6.20
2019-04-04T04:40:53.809Z,6.40
2019-04-04T04:43:22.776Z,6.50
2019-04-04T04:45:58.656Z,6.50
2019-04-04T04:48:30.730Z,6.60
2019-04-04T04:50:58.708Z,6.80
2019-04-04T04:53:34.622Z,6.90
2019-04-04T04:56:03.607Z,7.10
2019-04-04T04:58:32.595Z,7.30
2019-04-04T05:01:08.614Z,7.20
2019-04-04T05:03:37.605Z,7.30
2019-04-04T05:06:19.686Z,7.40
2019-04-04T05:08:55.975Z,7.60
2019-04-04T05:11:31.180Z,7.70
2019-04-04T05:14:00.140Z,7.40
2019-04-04T05:16:29.374Z,7.50
2019-04-04T05:19:04.663Z,7.50
2019-04-04T05:21:34.597Z,7.60
2019-04-04T05:24:03.682Z,7.60
2019-04-04T05:26:39.300Z,7.50
2019-04-04T05:29:08.287Z,7.40
2019-04-04T05:31:37.284Z,7.40
2019-04-04T05:34:13.149Z,7.50
2019-04-04T05:36:42.227Z,7.40
2019-04-04T05:39:24.321Z,7.40
2019-04-04T05:41:53.303Z,7.60
2019-04-04T05:44:22.286Z,7.90
2019-04-04T05:46:59.026Z,8.10
2019-04-04T05:49:28.030Z,8.40
2019-04-04T05:51:57.007Z,8.40
2019-04-04T05:54:33.551Z,8.30
2019-04-04T05:57:03.423Z,8.20
2019-04-04T05:59:33.351Z,8.50
2019-04-04T06:02:11.535Z,8.50
2019-04-04T06:04:40.359Z,8.70
2019-04-04T06:07:22.811Z,8.70
2019-04-04T06:09:58.360Z,8.80
2019-04-04T06:12:37.370Z,9.00
2019-04-04T06:15:07.101Z,8.80
2019-04-04T06:17:38.737Z,8.60
2019-04-04T06:20:15.641Z,8.60
2019-04-04T06:22:44.832Z,8.20
2019-04-04T06:25:13.786Z,8.00
2019-04-04T06:27:49.846Z,7.80
2019-04-04T06:30:20.143Z,7.80
2019-04-04T06:32:49.401Z,7.70
2019-04-04T06:35:24.560Z,7.60
2019-04-04T06:37:53.541Z,7.50
2019-04-04T06:40:36.115Z,7.40
2019-04-04T06:43:10.608Z,7.50
2019-04-04T06:45:35.777Z,7.60
2019-04-04T06:48:11.802Z,7.90
2019-04-04T06:50:43.004Z,8.10
2019-04-04T06:53:11.405Z,8.00
2019-04-04T06:55:47.202Z,8.10
2019-04-04T06:58:17.197Z,8.30
2019-04-04T07:00:49.876Z,8.40
2019-04-04T07:03:27.075Z,8.40
2019-04-04T07:05:54.771Z,8.60
2019-04-04T07:08:38.152Z,8.40
2019-04-04T07:11:21.238Z,8.60
2019-04-04T07:13:52.829Z,8.30
2019-04-04T07:16:21.818Z,8.20
2019-04-04T07:18:50.807Z,8.20
2019-04-04T07:21:26.963Z,8.40
2019-04-04T07:23:59.488Z,8.60
2019-04-04T07:26:28.689Z,9.00
2019-04-04T07:29:07.079Z,9.00
2019-04-04T07:31:38.356Z,8.90
2019-04-04T07:34:07.620Z,8.90
2019-04-04T07:36:43.797Z,8.80
2019-04-04T07:39:12.850Z,8.90
2019-04-04T07:41:44.717Z,9.20
2019-04-04T07:44:21.148Z,9.30
2019-04-04T07:46:50.245Z,9.50
2019-04-04T07:49:19.208Z,9.50
2019-04-04T07:51:55.882Z,9.60
2019-04-04T07:54:24.839Z,9.60
2019-04-04T07:56:53.825Z,9.70
2019-04-04T07:59:31.197Z,9.60
2019-04-04T08:02:00.380Z,9.50
2019-04-04T08:04:46.623Z,9.60
2019-04-04T08:07:15.601Z,9.60
2019-04-04T08:09:50.778Z,9.50
2019-04-04T08:12:33.968Z,9.70
2019-04-04T08:15:02.936Z,10.00
2019-04-04T08:17:31.926Z,10.00
2019-04-04T08:20:08.582Z,10.10
2019-04-04T08:22:39.683Z,10.20
2019-04-04T08:25:08.216Z,10.20
2019-04-04T08:27:44.278Z,10.20
2019-04-04T08:30:13.380Z,10.40
2019-04-04T08:37:46.866Z,10.70
2019-04-04T08:40:17.117Z,10.60
2019-04-04T08:42:53.678Z,11.00
2019-04-04T08:45:22.645Z,10.90
2019-04-04T08:47:51.648Z,11.10
2019-04-04T09:23:21.668Z,11.20
2019-04-04T09:25:50.732Z,11.10
2019-04-04T09:46:02.852Z,11.50
2019-04-04T09:48:31.818Z,11.50
2019-04-04T09:51:08.942Z,11.00
2019-04-04T10:06:16.110Z,11.60
2019-04-04T10:08:45.531Z,11.60
2019-04-04T10:11:28.494Z,11.50
2019-04-04T10:14:04.317Z,11.70
2019-04-04T17:11:14.169Z,11.40
2019-04-04T17:13:51.151Z,11.30
2019-04-04T17:16:28.407Z,11.20
2019-04-04T17:19:10.768Z,11.00
2019-04-04T17:21:39.749Z,10.90
2019-04-04T17:24:08.712Z,10.70
2019-04-04T17:26:44.222Z,10.60
2019-04-04T17:29:13.251Z,10.60
2019-04-04T17:31:42.300Z,10.50
2019-04-04T17:34:18.580Z,10.40
2019-04-04T17:36:47.911Z,10.40
2019-04-04T17:39:16.978Z,10.30
2019-04-04T17:41:53.311Z,10.30
2019-04-04T17:44:22.826Z,10.20
2019-04-04T17:46:51.869Z,10.10
2019-04-04T17:49:28.272Z,10.00
2019-04-04T17:51:57.335Z,10.00
2019-04-04T17:54:26.809Z,9.90
2019-04-04T17:57:02.914Z,9.80
2019-04-04T17:59:31.896Z,9.70
2019-04-04T18:02:00.897Z,9.70
2019-04-04T18:04:47.765Z,9.60
2019-04-04T18:07:07.393Z,9.60
2019-04-04T18:09:36.378Z,9.50
2019-04-04T18:12:12.053Z,9.40
2019-04-04T18:14:41.012Z,9.40
2019-04-04T18:17:23.599Z,9.40
2019-04-04T18:19:59.137Z,9.30
2019-04-04T18:22:35.166Z,9.40
2019-04-04T18:25:04.859Z,9.30
2019-04-04T18:27:34.135Z,9.30
2019-04-04T18:30:10.002Z,9.20
2019-04-04T18:32:38.987Z,9.20
2019-04-04T18:35:09.282Z,9.10
2019-04-04T18:37:45.365Z,9.10
2019-04-04T18:40:14.555Z,9.10
2019-04-04T18:42:53.304Z,9.00
2019-04-04T18:45:21.039Z,9.00
2019-04-04T18:47:50.029Z,8.90
2019-04-04T18:50:18.987Z,8.80
2019-04-04T18:52:54.774Z,8.70
2019-04-04T18:55:23.762Z,8.70
2019-04-04T18:57:52.728Z,8.60
2019-04-04T19:00:28.215Z,8.60
2019-04-04T19:02:57.301Z,8.60
2019-04-04T19:05:26.254Z,8.60
2019-04-04T19:08:02.885Z,8.50
2019-04-04T19:10:31.918Z,8.50
2019-04-04T19:13:05.474Z,8.50
2019-04-04T19:15:38.568Z,8.50
2019-04-04T19:18:14.125Z,8.40
2019-04-04T19:20:56.400Z,8.40
2019-04-04T19:23:25.408Z,8.40
2019-04-04T19:25:54.450Z,8.30
2019-04-04T19:28:30.174Z,8.30
2019-04-04T19:30:59.142Z,8.20
2019-04-04T19:33:28.101Z,8.20
2019-04-04T19:36:04.649Z,8.10
2019-04-04T19:38:33.636Z,8.10
2019-04-04T19:41:02.621Z,8.10
2019-04-04T19:43:38.650Z,8.10
2019-04-04T19:46:07.697Z,8.00
2019-04-04T19:48:36.678Z,8.00
2019-04-04T19:51:12.833Z,8.10
2019-04-04T19:53:41.815Z,8.00
2019-04-04T19:56:10.806Z,8.10
2019-04-04T19:58:47.117Z,8.00
2019-04-04T20:01:16.104Z,8.10
2019-04-04T20:03:45.156Z,8.10
2019-04-04T20:06:21.084Z,8.10
2019-04-04T20:08:53.420Z,8.10
2019-04-04T20:11:20.650Z,8.00
2019-04-04T20:13:56.918Z,8.00
2019-04-04T20:16:25.902Z,8.10
2019-04-04T20:19:08.137Z,8.10
2019-04-04T20:21:37.144Z,8.00
2019-04-04T20:24:12.364Z,8.00
2019-04-04T20:26:48.445Z,8.00
2019-04-04T20:29:17.432Z,8.00
2019-04-04T20:31:46.396Z,8.10
2019-04-04T20:34:22.852Z,8.00
2019-04-04T20:36:51.839Z,8.10
2019-04-04T20:39:20.818Z,8.10
2019-04-04T20:41:56.770Z,8.10
2019-04-04T20:44:25.758Z,8.00
2019-04-04T20:46:54.708Z,8.00
2019-04-04T20:49:30.867Z,8.00
2019-04-04T20:51:59.932Z,8.00
2019-04-04T20:54:28.911Z,8.10
2019-04-04T20:57:05.089Z,8.10
2019-04-04T20:59:34.063Z,8.00
2019-04-04T21:02:03.049Z,7.90
2019-04-04T21:04:39.566Z,7.90
2019-04-04T21:07:08.649Z,7.90
2019-04-04T21:09:37.750Z,8.00
2019-04-04T21:12:14.238Z,7.90
2019-04-04T21:14:43.198Z,8.00
2019-04-04T21:17:12.187Z,8.00
2019-04-04T21:19:47.397Z,7.90
2019-04-04T21:22:27.830Z,7.80
2019-04-04T21:25:00.939Z,7.90
2019-04-04T21:27:36.865Z,7.80
2019-04-04T21:30:16.526Z,7.70
2019-04-04T21:32:45.526Z,7.70
2019-04-04T21:35:14.677Z,7.80
2019-04-04T21:37:50.111Z,7.70
2019-04-04T21:40:19.093Z,7.70
2019-04-04T21:42:48.055Z,7.70
2019-04-04T21:45:24.070Z,7.80
2019-04-04T21:47:53.035Z,7.70
2019-04-04T21:50:22.018Z,7.70
2019-04-04T21:52:58.469Z,7.50
2019-04-04T21:55:27.437Z,7.50
2019-04-04T21:57:56.397Z,7.70
2019-04-04T22:00:34.761Z,7.70
2019-04-04T22:03:03.947Z,7.70
2019-04-04T22:05:33.173Z,7.60
2019-04-04T22:08:09.010Z,7.60
2019-04-04T22:10:38.014Z,7.60
2019-04-04T22:13:06.973Z,7.60
2019-04-04T22:15:42.491Z,7.50
2019-04-04T22:18:11.582Z,7.40
2019-04-04T22:20:54.002Z,7.50
2019-04-04T22:23:29.813Z,7.60
2019-04-04T22:25:58.863Z,7.60
2019-04-04T22:28:43.340Z,7.50
2019-04-04T22:31:12.339Z,7.40
2019-04-04T22:33:41.339Z,7.50
2019-04-04T22:36:17.701Z,7.50
2019-04-04T22:38:46.665Z,7.50
2019-04-04T22:41:15.657Z,7.50
2019-04-04T22:44:02.675Z,7.50
2019-04-04T22:46:21.418Z,7.50
2019-04-04T22:48:50.414Z,7.40
2019-04-04T22:51:26.170Z,7.30
2019-04-04T22:53:55.253Z,7.40
2019-04-04T22:56:24.260Z,7.40
2019-04-04T22:59:00.406Z,7.30
2019-04-04T23:01:29.402Z,7.40
2019-04-04T23:03:58.477Z,7.40
2019-04-04T23:06:34.160Z,7.30
2019-04-04T23:09:03.456Z,7.30
2019-04-04T23:11:32.431Z,7.20
2019-04-04T23:14:08.960Z,7.20
2019-04-04T23:16:37.926Z,7.20
2019-04-04T23:19:06.889Z,7.30
2019-04-04T23:21:42.649Z,7.30
2019-04-04T23:24:18.390Z,7.30
2019-04-04T23:26:54.577Z,7.30
2019-04-04T23:29:23.567Z,7.30
2019-04-04T23:32:05.564Z,7.30
2019-04-04T23:34:34.528Z,7.40
2019-04-04T23:37:03.582Z,7.50
2019-04-04T23:39:40.150Z,7.60
2019-04-04T23:42:09.114Z,7.70
2019-04-04T23:44:38.070Z,7.70
2019-04-04T23:47:14.163Z,7.80
2019-04-04T23:49:43.258Z,7.90
2019-04-04T23:52:12.226Z,7.90
2019-04-04T23:54:48.643Z,7.90
2019-04-04T23:57:17.626Z,8.00
2019-04-04T23:59:46.589Z,8.10
